createdAt,value
2023-04-03T00:01:22.546Z,8.63
2023-04-03T00:03:49.367Z,8.42
2023-04-03T00:06:16.243Z,8.62
2023-04-03T00:08:43.082Z,8.30
2023-04-03T00:11:10.836Z,8.43
2023-04-03T00:13:38.894Z,8.30
2023-04-03T00:16:06.608Z,8.23
2023-04-03T00:18:33.505Z,8.38
2023-04-03T00:21:00.727Z,8.40
2023-04-03T00:23:27.543Z,8.35
2023-04-03T00:25:55.350Z,8.05
2023-04-03T00:28:22.550Z,8.34
2023-04-03T00:30:52.616Z,8.41
2023-04-03T00:33:25.302Z,8.41
2023-04-03T00:35:52.569Z,7.99
2023-04-03T00:38:19.487Z,8.09
2023-04-03T00:40:48.910Z,8.02
2023-04-03T00:43:23.722Z,7.89
2023-04-03T00:45:54.040Z,8.12
2023-04-03T00:48:32.967Z,8.01
2023-04-03T00:51:01.362Z,8.14
2023-04-03T00:53:54.074Z,8.18
2023-04-03T00:56:25.023Z,8.33
2023-04-03T00:59:18.123Z,8.48
2023-04-03T01:01:45.468Z,8.44
2023-04-03T01:04:37.828Z,8.23
2023-04-03T01:07:16.445Z,8.26
2023-04-03T01:09:44.248Z,8.35
2023-04-03T01:12:19.169Z,8.30
2023-04-03T01:14:47.523Z,8.31
2023-04-03T01:17:44.798Z,8.38
2023-04-03T01:20:32.792Z,8.24
2023-04-03T01:23:12.053Z,8.28
2023-04-03T01:25:44.930Z,8.38
2023-04-03T01:28:19.825Z,8.43
2023-04-03T01:31:28.388Z,8.49
2023-04-03T01:33:56.512Z,8.36
2023-04-03T01:36:31.008Z,8.21
2023-04-03T01:39:00.705Z,8.28
2023-04-03T01:41:27.966Z,8.31
2023-04-03T01:43:54.833Z,8.10
2023-04-03T01:46:22.061Z,8.15
2023-04-03T01:48:50.403Z,8.01
2023-04-03T01:51:17.858Z,8.20
2023-04-03T01:53:44.743Z,8.12
2023-04-03T01:56:11.751Z,8.20
2023-04-03T01:58:39.244Z,8.15
2023-04-03T02:01:06.928Z,8.20
2023-04-03T02:03:34.033Z,8.27
2023-04-03T02:06:00.897Z,8.24
2023-04-03T02:08:27.772Z,8.20
2023-04-03T02:10:54.642Z,8.34
2023-04-03T02:13:21.441Z,8.37
2023-04-03T02:15:48.773Z,8.49
2023-04-03T02:18:16.091Z,8.30
2023-04-03T02:20:43.197Z,8.38
2023-04-03T02:23:10.698Z,8.41
2023-04-03T02:25:38.924Z,8.37
2023-04-03T02:28:06.820Z,7.92
2023-04-03T02:30:33.742Z,8.04
2023-04-03T02:33:00.931Z,8.01
2023-04-03T02:35:27.912Z,7.85
2023-04-03T02:37:54.883Z,7.91
2023-04-03T02:40:21.687Z,7.76
2023-04-03T02:42:48.461Z,7.98
2023-04-03T02:45:15.316Z,8.07
2023-04-03T02:47:42.287Z,7.81
2023-04-03T02:50:09.563Z,8.11
2023-04-03T02:52:36.437Z,8.08
2023-04-03T02:55:03.689Z,8.19
2023-04-03T02:57:30.928Z,8.26
2023-04-03T02:59:57.897Z,8.27
2023-04-03T03:02:25.033Z,8.31
2023-04-03T03:04:51.848Z,8.33
2023-04-03T03:07:18.731Z,8.18
2023-04-03T03:09:45.499Z,8.30
2023-04-03T03:12:12.398Z,8.33
2023-04-03T03:14:39.253Z,8.35
2023-04-03T03:17:06.248Z,8.05
2023-04-03T03:19:33.047Z,8.12
2023-04-03T03:21:59.878Z,8.10
2023-04-03T03:24:26.676Z,7.88
2023-04-03T03:26:53.549Z,7.81
2023-04-03T03:29:20.493Z,7.80
2023-04-03T03:31:47.381Z,7.60
2023-04-03T03:34:14.386Z,7.72
2023-04-03T03:36:41.792Z,7.58
2023-04-03T03:39:08.637Z,7.78
2023-04-03T03:41:35.505Z,7.84
2023-04-03T03:44:02.402Z,7.99
2023-04-03T03:46:29.266Z,7.94
2023-04-03T03:48:56.198Z,7.94
2023-04-03T03:51:23.063Z,7.91
2023-04-03T03:53:49.911Z,7.94
2023-04-03T03:56:16.775Z,8.06
2023-04-03T03:58:43.623Z,8.09
2023-04-03T04:01:10.456Z,8.05
2023-04-03T04:03:38.151Z,8.18
2023-04-03T04:06:05.344Z,7.98
2023-04-03T04:08:32.261Z,8.10
2023-04-03T04:10:59.040Z,8.03
2023-04-03T04:13:26.120Z,7.97
2023-04-03T04:15:52.933Z,7.97
2023-04-03T04:18:21.151Z,7.99
2023-04-03T04:20:48.026Z,7.91
2023-04-03T04:23:15.236Z,7.98
2023-04-03T04:25:42.103Z,8.09
2023-04-03T04:28:09.005Z,7.97
2023-04-03T04:30:35.911Z,8.02
2023-04-03T04:33:02.817Z,8.03
2023-04-03T04:35:29.942Z,8.03
2023-04-03T04:37:57.034Z,8.04
2023-04-03T04:40:24.084Z,8.06
2023-04-03T04:42:51.015Z,8.12
2023-04-03T04:45:17.920Z,8.14
2023-04-03T04:47:45.494Z,8.14
2023-04-03T04:50:12.992Z,8.18
2023-04-03T04:52:40.063Z,8.17
2023-04-03T04:55:07.579Z,8.16
2023-04-03T04:57:35.615Z,8.11
2023-04-03T05:00:02.642Z,8.14
2023-04-03T05:02:29.577Z,8.19
2023-04-03T05:04:56.390Z,8.23
2023-04-03T05:07:23.638Z,8.22
2023-04-03T05:09:50.517Z,8.28
2023-04-03T05:12:18.187Z,8.18
2023-04-03T05:14:45.218Z,8.22
2023-04-03T05:17:12.158Z,8.15
2023-04-03T05:19:39.042Z,7.98
2023-04-03T05:22:05.844Z,7.95
2023-04-03T05:24:32.688Z,7.99
2023-04-03T05:26:59.835Z,7.96
2023-04-03T05:29:26.663Z,8.02
2023-04-03T05:31:53.541Z,8.12
2023-04-03T05:34:20.515Z,8.31
2023-04-03T05:36:47.431Z,8.32
2023-04-03T05:39:14.672Z,8.32
2023-04-03T05:41:41.527Z,8.30
2023-04-03T05:44:08.379Z,8.42
2023-04-03T05:46:35.458Z,8.54
2023-04-03T05:49:02.248Z,8.51
2023-04-03T05:51:36.649Z,8.57
2023-04-03T05:54:28.648Z,8.52
2023-04-03T05:56:56.113Z,8.66
2023-04-03T05:59:23.395Z,8.81
2023-04-03T06:01:50.415Z,8.57
2023-04-03T06:04:17.511Z,8.66
2023-04-03T06:06:58.217Z,8.69
2023-04-03T06:09:29.961Z,8.84
2023-04-03T06:11:59.458Z,8.48
2023-04-03T06:14:27.506Z,8.72
2023-04-03T06:16:55.259Z,8.87
2023-04-03T06:19:22.201Z,8.88
2023-04-03T06:21:49.050Z,8.92
2023-04-03T06:24:17.740Z,8.97
2023-04-03T06:26:45.241Z,9.14
2023-04-03T06:29:12.107Z,9.05
2023-04-03T06:31:39.034Z,9.34
2023-04-03T06:34:09.542Z,9.32
2023-04-03T06:36:36.942Z,9.31
2023-04-03T06:39:04.162Z,9.36
2023-04-03T06:41:31.610Z,9.46
2023-04-03T06:43:59.378Z,9.42
2023-04-03T06:46:27.957Z,9.41
2023-04-03T06:48:55.000Z,9.58
2023-04-03T06:51:23.304Z,9.56
2023-04-03T06:53:52.348Z,9.85
2023-04-03T06:56:19.799Z,9.80
2023-04-03T06:58:47.173Z,10.00
2023-04-03T07:01:16.571Z,9.94
2023-04-03T07:03:43.756Z,9.97
2023-04-03T07:06:15.828Z,10.00
2023-04-03T07:08:43.431Z,10.20
2023-04-03T07:11:11.446Z,10.34
2023-04-03T07:13:39.508Z,10.25
2023-04-03T07:16:07.271Z,10.31
2023-04-03T07:18:34.784Z,10.37
2023-04-03T07:21:01.655Z,10.30
2023-04-03T07:23:28.866Z,10.12
2023-04-03T07:25:56.207Z,10.33
2023-04-03T07:28:23.970Z,10.50
2023-04-03T07:31:03.965Z,10.47
2023-04-03T07:33:32.030Z,10.05
2023-04-03T07:35:59.355Z,10.07
2023-04-03T07:38:26.623Z,9.85
2023-04-03T07:40:53.770Z,10.18
2023-04-03T07:43:22.928Z,10.14
2023-04-03T07:45:51.744Z,10.01
2023-04-03T07:48:24.764Z,10.30
2023-04-03T07:50:53.021Z,10.30
2023-04-03T07:53:19.816Z,10.60
2023-04-03T07:55:50.035Z,10.78
2023-04-03T07:58:19.393Z,10.76
2023-04-03T08:00:46.985Z,11.17
2023-04-03T08:03:14.837Z,11.18
2023-04-03T08:05:43.738Z,10.70
2023-04-03T08:08:13.005Z,11.05
2023-04-03T08:10:40.600Z,11.05
2023-04-03T08:13:08.924Z,11.46
2023-04-03T08:15:36.370Z,11.75
2023-04-03T08:18:04.806Z,11.93
2023-04-03T08:20:31.796Z,12.10
2023-04-03T08:22:58.696Z,11.98
2023-04-03T08:25:25.821Z,12.09
2023-04-03T08:27:52.696Z,12.41
2023-04-03T08:30:19.668Z,12.36
2023-04-03T08:32:46.828Z,11.96
2023-04-03T08:35:13.809Z,12.10
2023-04-03T08:37:41.312Z,12.07
2023-04-03T08:40:15.141Z,11.64
2023-04-03T08:43:06.028Z,11.93
2023-04-03T08:45:51.279Z,12.11
2023-04-03T08:48:32.822Z,12.14
2023-04-03T08:51:05.468Z,12.31
2023-04-03T08:53:41.618Z,11.70
2023-04-03T08:56:11.252Z,12.08
2023-04-03T08:58:57.623Z,12.42
2023-04-03T09:01:35.883Z,12.44
2023-04-03T09:04:10.074Z,12.04
2023-04-03T09:06:39.308Z,12.34
2023-04-03T09:09:44.480Z,12.62
2023-04-03T09:12:27.450Z,12.86
2023-04-03T09:15:27.843Z,12.70
2023-04-03T09:18:16.662Z,12.69
2023-04-03T09:21:13.665Z,13.06
2023-04-03T09:23:52.943Z,13.34
2023-04-03T09:26:27.495Z,12.89
2023-04-03T09:29:02.137Z,13.24
2023-04-03T09:31:41.086Z,12.42
2023-04-03T09:34:27.413Z,13.05
2023-04-03T09:36:57.112Z,12.78
2023-04-03T09:39:30.286Z,13.12
2023-04-03T09:42:05.941Z,13.10
2023-04-03T09:44:38.726Z,13.36
2023-04-03T09:47:34.831Z,13.38
2023-04-03T09:50:14.225Z,13.56
2023-04-03T09:52:43.970Z,13.63
2023-04-03T09:55:32.451Z,12.62
2023-04-03T09:58:02.851Z,13.71
2023-04-03T10:00:38.507Z,13.58
2023-04-03T10:03:07.073Z,14.03
2023-04-03T10:05:41.501Z,14.40
2023-04-03T10:08:33.495Z,14.00
2023-04-03T10:11:16.815Z,13.27
2023-04-03T10:14:05.923Z,13.44
2023-04-03T10:16:42.904Z,12.75
2023-04-03T10:19:18.571Z,12.33
2023-04-03T10:22:17.135Z,13.07
2023-04-03T10:25:16.907Z,13.19
2023-04-03T10:28:17.326Z,12.65
2023-04-03T10:31:02.375Z,13.02
2023-04-03T10:34:13.827Z,12.88
2023-04-03T10:36:57.605Z,13.14
2023-04-03T10:39:40.987Z,12.56
2023-04-03T10:42:24.596Z,12.25
2023-04-03T10:45:01.110Z,12.77
2023-04-03T10:47:42.810Z,12.58
2023-04-03T10:50:45.856Z,12.71
2023-04-03T10:53:29.618Z,12.31
2023-04-03T10:56:33.670Z,12.24
2023-04-03T10:59:31.666Z,11.97
2023-04-03T11:02:08.507Z,11.92
2023-04-03T11:04:40.304Z,11.87
2023-04-03T11:07:20.994Z,12.55
2023-04-03T11:09:55.246Z,13.59
2023-04-03T11:12:48.112Z,14.19
2023-04-03T11:15:18.995Z,14.97
2023-04-03T11:17:51.998Z,14.94
2023-04-03T11:20:34.345Z,15.29
2023-04-03T11:23:21.998Z,15.57
2023-04-03T11:25:54.572Z,15.97
2023-04-03T11:28:21.560Z,16.18
2023-04-03T11:30:52.899Z,16.30
2023-04-03T11:33:42.841Z,16.02
2023-04-03T11:36:34.799Z,15.05
2023-04-03T11:39:33.110Z,13.82
2023-04-03T11:42:24.123Z,13.59
2023-04-03T11:44:50.998Z,12.64
2023-04-03T11:47:51.761Z,13.14
2023-04-03T11:50:41.259Z,13.40
2023-04-03T11:53:08.286Z,13.14
2023-04-03T11:55:35.104Z,13.29
2023-04-03T11:58:02.023Z,12.71
2023-04-03T12:00:50.588Z,13.79
2023-04-03T12:03:26.659Z,14.62
2023-04-03T12:05:55.050Z,15.47
2023-04-03T12:08:46.615Z,15.62
2023-04-03T12:11:13.478Z,15.95
2023-04-03T12:13:58.299Z,14.93
2023-04-03T12:16:58.491Z,14.47
2023-04-03T12:19:44.451Z,13.69
2023-04-03T12:22:17.600Z,12.76
2023-04-03T12:24:52.580Z,12.48
2023-04-03T12:27:41.831Z,12.68
2023-04-03T12:30:20.032Z,12.51
2023-04-03T12:33:12.560Z,12.75
2023-04-03T12:35:55.161Z,13.05
2023-04-03T12:39:07.358Z,13.21
2023-04-03T12:42:10.618Z,13.26
2023-04-03T12:44:53.397Z,13.44
2023-04-03T12:47:37.101Z,13.70
2023-04-03T12:50:17.182Z,14.09
2023-04-03T12:52:51.433Z,14.25
2023-04-03T12:55:21.327Z,13.89
2023-04-03T12:57:48.865Z,14.04
2023-04-03T13:00:34.428Z,14.88
2023-04-03T13:03:05.168Z,15.90
2023-04-03T13:05:35.940Z,16.47
2023-04-03T13:08:11.909Z,17.13
2023-04-03T13:11:00.589Z,20.13
2023-04-03T13:13:27.912Z,22.87
2023-04-03T13:15:56.064Z,24.18
2023-04-03T13:18:34.649Z,22.16
2023-04-03T13:21:19.700Z,23.38
2023-04-03T13:23:57.397Z,24.65
2023-04-03T13:26:31.942Z,23.24
2023-04-03T13:29:09.458Z,22.98
2023-04-03T13:31:41.375Z,20.08
2023-04-03T13:34:18.702Z,18.89
2023-04-03T13:37:00.345Z,17.54
2023-04-03T13:39:30.718Z,16.31
2023-04-03T13:42:02.787Z,15.73
2023-04-03T13:44:37.008Z,15.20
2023-04-03T13:47:24.357Z,15.10
2023-04-03T13:50:12.150Z,14.64
2023-04-03T13:53:13.243Z,14.30
2023-04-03T13:55:59.289Z,14.20
2023-04-03T13:58:31.394Z,13.58
2023-04-03T14:01:21.275Z,13.91
2023-04-03T14:04:01.953Z,16.75
2023-04-03T14:06:30.307Z,19.46
2023-04-03T14:08:57.159Z,23.42
2023-04-03T14:11:29.598Z,25.81
2023-04-03T14:14:02.131Z,27.81
2023-04-03T14:16:32.621Z,28.24
2023-04-03T14:18:59.535Z,28.57
2023-04-03T14:21:26.887Z,24.03
2023-04-03T14:23:53.736Z,22.09
2023-04-03T14:26:27.438Z,24.01
2023-04-03T14:28:56.620Z,25.42
2023-04-03T14:31:24.355Z,27.45
2023-04-03T14:33:51.469Z,29.48
2023-04-03T14:36:23.660Z,29.83
2023-04-03T14:38:51.992Z,29.63
2023-04-03T14:41:23.097Z,26.88
2023-04-03T14:43:51.205Z,26.13
2023-04-03T14:46:26.445Z,26.61
2023-04-03T14:48:54.686Z,28.15
2023-04-03T14:51:21.791Z,27.93
2023-04-03T14:53:50.089Z,27.93
2023-04-03T14:56:27.411Z,26.92
2023-04-03T14:59:00.258Z,25.87
2023-04-03T15:01:29.244Z,27.02
2023-04-03T15:03:56.346Z,26.90
2023-04-03T15:06:23.404Z,25.32
2023-04-03T15:08:50.435Z,23.45
2023-04-03T15:11:17.266Z,22.84
2023-04-03T15:13:44.312Z,24.92
2023-04-03T15:16:20.428Z,25.64
2023-04-03T15:18:48.373Z,26.68
2023-04-03T15:21:15.287Z,26.73
2023-04-03T15:23:43.008Z,27.75
2023-04-03T15:26:10.513Z,28.00
2023-04-03T15:28:46.565Z,26.13
2023-04-03T15:31:13.447Z,24.52
2023-04-03T15:33:40.441Z,24.93
2023-04-03T15:36:17.213Z,22.18
2023-04-03T15:38:54.459Z,21.06
2023-04-03T15:41:21.978Z,20.39
2023-04-03T15:43:48.798Z,18.94
2023-04-03T15:46:15.857Z,17.81
2023-04-03T15:48:43.925Z,17.06
2023-04-03T15:51:11.155Z,16.56
2023-04-03T15:53:37.984Z,15.73
2023-04-03T15:56:05.643Z,15.06
2023-04-03T15:58:32.582Z,14.69
2023-04-03T16:00:59.546Z,13.81
2023-04-03T16:03:26.533Z,14.68
2023-04-03T16:05:53.792Z,14.42
2023-04-03T16:08:21.094Z,14.52
2023-04-03T16:10:48.008Z,14.87
2023-04-03T16:13:15.789Z,14.61
2023-04-03T16:15:42.956Z,14.59
2023-04-03T16:18:11.341Z,13.97
2023-04-03T16:20:38.467Z,13.19
2023-04-03T16:23:05.861Z,12.99
2023-04-03T16:25:32.769Z,12.02
2023-04-03T16:27:59.699Z,11.88
2023-04-03T16:30:26.999Z,11.86
2023-04-03T16:32:54.538Z,12.28
2023-04-03T16:35:21.471Z,12.02
2023-04-03T16:37:48.421Z,12.70
2023-04-03T16:40:15.732Z,12.98
2023-04-03T16:42:42.733Z,12.82
2023-04-03T16:45:11.129Z,13.00
2023-04-03T16:47:38.082Z,12.44
2023-04-03T16:50:05.870Z,11.74
2023-04-03T16:52:32.771Z,12.11
2023-04-03T16:54:59.885Z,12.07
2023-04-03T16:57:27.041Z,11.46
2023-04-03T16:59:54.834Z,11.59
2023-04-03T17:02:27.506Z,11.60
2023-04-03T17:04:55.233Z,11.34
2023-04-03T17:07:25.362Z,11.05
2023-04-03T17:09:54.304Z,11.02
2023-04-03T17:12:22.494Z,10.89
2023-04-03T17:14:49.571Z,10.82
2023-04-03T17:17:21.495Z,10.28
2023-04-03T17:19:48.717Z,10.57
2023-04-03T17:22:17.546Z,10.59
2023-04-03T17:24:45.845Z,10.24
2023-04-03T17:27:13.069Z,10.45
2023-04-03T17:29:39.889Z,10.17
2023-04-03T17:32:06.766Z,10.29
2023-04-03T17:34:33.767Z,10.33
2023-04-03T17:37:00.671Z,10.18
2023-04-03T17:39:27.616Z,9.84
2023-04-03T17:41:55.122Z,10.13
2023-04-03T17:44:22.811Z,9.99
2023-04-03T17:46:49.664Z,9.84
2023-04-03T17:49:18.864Z,9.95
2023-04-03T17:51:45.757Z,9.88
2023-04-03T17:54:12.896Z,9.86
2023-04-03T17:56:39.793Z,9.86
2023-04-03T17:59:06.736Z,9.49
2023-04-03T18:01:36.728Z,9.76
2023-04-03T18:04:05.882Z,9.71
2023-04-03T18:06:45.709Z,9.47
2023-04-03T18:09:19.055Z,9.56
2023-04-03T18:11:47.653Z,9.61
2023-04-03T18:14:22.614Z,9.49
2023-04-03T18:16:49.878Z,9.73
2023-04-03T18:22:09.082Z,9.49
2023-04-03T18:24:36.514Z,9.28
2023-04-03T18:27:13.523Z,9.19
2023-04-03T18:29:42.959Z,9.04
2023-04-03T18:32:13.509Z,9.05
2023-04-03T18:34:40.635Z,9.13
2023-04-03T18:37:07.634Z,8.82
2023-04-03T18:39:34.485Z,9.05
2023-04-03T18:42:10.052Z,8.53
2023-04-03T18:44:39.271Z,8.85
2023-04-03T18:47:07.877Z,8.77
2023-04-03T18:49:36.647Z,8.42
2023-04-03T18:52:04.571Z,8.28
2023-04-03T18:54:32.504Z,8.17
2023-04-03T18:56:59.535Z,8.18
2023-04-03T18:59:27.425Z,8.12
2023-04-03T19:01:55.601Z,8.11
2023-04-03T19:04:23.395Z,8.00
2023-04-03T19:06:51.451Z,8.03
2023-04-03T19:09:18.364Z,8.02
2023-04-03T19:11:45.397Z,7.81
2023-04-03T19:14:16.505Z,7.97
2023-04-03T19:16:44.960Z,8.08
2023-04-03T19:19:12.597Z,7.87
2023-04-03T19:21:41.425Z,7.85
2023-04-03T19:24:11.602Z,7.69
2023-04-03T19:26:40.798Z,7.59
2023-04-03T19:29:08.216Z,7.58
2023-04-03T19:31:37.115Z,7.45
2023-04-03T19:34:05.498Z,7.43
2023-04-03T19:36:33.360Z,7.35
2023-04-03T19:39:00.254Z,7.22
2023-04-03T19:41:30.953Z,7.14
2023-04-03T19:43:58.179Z,7.22
2023-04-03T19:46:27.300Z,7.12
2023-04-03T19:48:54.650Z,7.07
2023-04-03T19:51:21.762Z,7.20
2023-04-03T19:53:48.788Z,7.10
2023-04-03T19:56:20.741Z,7.05
2023-04-03T19:58:53.670Z,7.05
2023-04-03T20:01:24.255Z,7.23
2023-04-03T20:03:51.701Z,7.12
2023-04-03T20:06:18.841Z,7.32
2023-04-03T20:08:45.665Z,7.28
2023-04-03T20:11:12.604Z,7.02
2023-04-03T20:13:39.671Z,7.23
2023-04-03T20:16:08.314Z,7.09
2023-04-03T20:18:35.888Z,7.15
2023-04-03T20:21:04.869Z,7.07
2023-04-03T20:23:33.200Z,6.78
2023-04-03T20:26:09.539Z,6.95
2023-04-03T20:28:39.066Z,6.89
2023-04-03T20:31:07.836Z,6.87
2023-04-03T20:33:35.364Z,6.56
2023-04-03T20:36:02.436Z,6.76
2023-04-03T20:38:29.377Z,6.77
2023-04-03T20:40:56.211Z,6.72
2023-04-03T20:43:23.683Z,6.57
2023-04-03T20:45:50.860Z,6.72
2023-04-03T20:48:18.418Z,6.63
2023-04-03T20:50:46.483Z,6.65
2023-04-03T20:53:14.746Z,6.65
2023-04-03T20:55:42.287Z,6.44
2023-04-03T20:58:09.315Z,6.82
2023-04-03T21:00:37.902Z,6.15
2023-04-03T21:03:05.822Z,6.29
2023-04-03T21:05:34.552Z,6.52
2023-04-03T21:08:57.678Z,6.58
2023-04-03T21:12:20.653Z,6.65
2023-04-03T21:15:45.193Z,6.72
2023-04-03T21:18:12.381Z,6.70
2023-04-03T21:20:43.112Z,6.67
2023-04-03T21:23:11.151Z,6.61
2023-04-03T21:25:38.047Z,6.60
2023-04-03T21:28:04.868Z,6.66
2023-04-03T21:30:31.708Z,6.47
2023-04-03T21:32:58.781Z,6.58
2023-04-03T21:35:26.049Z,6.65
2023-04-03T21:37:52.848Z,6.62
2023-04-03T21:40:19.742Z,6.70
2023-04-03T21:42:46.647Z,6.33
2023-04-03T21:45:15.996Z,6.16
2023-04-03T21:47:43.929Z,6.40
2023-04-03T21:50:11.347Z,6.30
2023-04-03T21:52:38.217Z,6.32
2023-04-03T21:55:05.546Z,6.25
2023-04-03T21:57:32.384Z,6.28
2023-04-03T21:59:59.392Z,6.28
2023-04-03T22:02:29.884Z,6.07
2023-04-03T22:04:56.740Z,5.97
2023-04-03T22:07:23.630Z,6.03
2023-04-03T22:09:50.723Z,5.97
2023-04-03T22:12:17.664Z,6.09
2023-04-03T22:14:44.671Z,5.93
2023-04-03T22:17:11.723Z,5.85
2023-04-03T22:19:39.045Z,5.81
2023-04-03T22:22:05.974Z,5.84
2023-04-03T22:24:32.768Z,5.71
2023-04-03T22:26:59.586Z,5.76
2023-04-03T22:29:27.414Z,5.67
2023-04-03T22:31:54.331Z,5.61
2023-04-03T22:34:22.556Z,5.55
2023-04-03T22:36:49.376Z,5.51
2023-04-03T22:39:16.422Z,5.42
2023-04-03T22:41:45.346Z,5.43
2023-04-03T22:44:12.711Z,5.40
2023-04-03T22:46:39.753Z,5.28
2023-04-03T22:49:06.649Z,5.26
2023-04-03T22:51:33.504Z,5.33
2023-04-03T22:54:00.538Z,5.19
2023-04-03T22:56:27.645Z,5.32
2023-04-03T22:58:55.190Z,5.32
2023-04-03T23:01:24.074Z,5.32
2023-04-03T23:03:51.721Z,5.36
2023-04-03T23:06:18.660Z,5.34
2023-04-03T23:08:45.490Z,5.17
2023-04-03T23:11:12.598Z,5.25
2023-04-03T23:13:39.506Z,5.17
2023-04-03T23:16:06.782Z,5.30
2023-04-03T23:18:33.836Z,5.17
2023-04-03T23:21:03.271Z,5.18
2023-04-03T23:23:30.754Z,5.13
2023-04-03T23:26:00.357Z,5.14
2023-04-03T23:28:28.842Z,5.08
2023-04-03T23:31:05.513Z,5.09
2023-04-03T23:33:33.294Z,5.11
2023-04-03T23:36:07.278Z,5.14
2023-04-03T23:38:34.898Z,5.04
2023-04-03T23:41:02.138Z,5.03
2023-04-03T23:43:29.280Z,4.92
2023-04-03T23:45:56.314Z,4.95
2023-04-03T23:48:23.186Z,4.96
2023-04-03T23:50:49.990Z,4.78
2023-04-03T23:53:17.199Z,4.92
2023-04-03T23:55:44.164Z,4.89
2023-04-03T23:58:11.034Z,4.89
